This is the latest recevied weather packets stored in our database for station/object W6SNO-1. If no packets are shown the sender has not sent any weather packets the latest 10 day(s).
| Time | Temp. | Humidity | Pressure | Rain* | Wind** | Luminosity | Snow |
|---|---|---|---|---|---|---|---|
| 1777670076 | 22.78° C | 56% | 1014.1 hPa | 0 mm | - | 724 W/m² | - |
| 1777668560 | 22.78° C | 55% | 1014.3 hPa | 0 mm | - | 763 W/m² | - |
| 1777668256 | 22.78° C | 55% | 1014.3 hPa | 0 mm | - | 763 W/m² | - |
| 1777667650 | 22.78° C | 56% | 1014.3 hPa | 0 mm | - | 729 W/m² | - |
| 1777667347 | 22.78° C | 56% | 1014.5 hPa | 0 mm | - | 729 W/m² | - |
| 1777666740 | 22.22° C | 56% | 1014.5 hPa | 0 mm | - | 773 W/m² | - |
| 1777666437 | 22.22° C | 56% | 1014.5 hPa | 0 mm | - | 773 W/m² | - |
| 1777666134 | 22.22° C | 56% | 1014.7 hPa | 0 mm | - | 761 W/m² | - |
| 1777665831 | 22.22° C | 56% | 1014.6 hPa | 0 mm | - | 761 W/m² | - |
| 1777665224 | 22.22° C | 55% | 1014.6 hPa | 0 mm | - | 773 W/m² | - |
| 1777664921 | 22.22° C | 55% | 1014.7 hPa | 0 mm | - | 773 W/m² | - |
| 1777664617 | 21.67° C | 57% | 1014.6 hPa | 0 mm | - | 773 W/m² | - |
| 1777664313 | 22.22° C | 55% | 1014.9 hPa | 0 mm | - | 789 W/m² | - |
| 1777664012 | 21.67° C | 54% | 1014.9 hPa | 0 mm | - | 756 W/m² | - |
| 1777663709 | 21.67° C | 56% | 1014.9 hPa | 0 mm | - | 756 W/m² | - |
| 1777663406 | 21.11° C | 57% | 1014.9 hPa | 0 mm | - | 766 W/m² | - |
| 1777663103 | 21.11° C | 57% | 1015.2 hPa | 0 mm | - | 766 W/m² | - |
| 1777662800 | 21.11° C | 59% | 1015.1 hPa | 0 mm | - | 715 W/m² | - |
| 1777662497 | 21.11° C | 59% | 1015.1 hPa | 0 mm | - | 715 W/m² | - |
| 1777662193 | 20.56° C | 59% | 1014.8 hPa | 0 mm | - | 728 W/m² | - |
| 1777661888 | 20° C | 61% | 1015.1 hPa | 0 mm | - | 719 W/m² | - |
| 1777661584 | 20° C | 60% | 1015.2 hPa | 0 mm | - | 731 W/m² | - |
| 1777653699 | 14.44° C | 79% | 1015.9 hPa | 0 mm | - | 463 W/m² | - |
| 1777653396 | 14.44° C | 79% | 1015.7 hPa | 0 mm | - | 463 W/m² | - |
| 1777653093 | 13.89° C | 81% | 1015.5 hPa | 0 mm | - | 66 W/m² | - |
* Rain latest hour (hover to see other rain measurements)
** Current wind speed in m/s (hover to see current wind gust speed)